sensor_id;sensor_type;location;lat;lon;timestamp;pressure;altitude;pressure_sealevel;temperature
28803;BMP280;15949;55.656;37.422;2023-08-06T00:00:23;99760.56;;;19.78
28803;BMP280;15949;55.656;37.422;2023-08-06T00:05:29;99772.28;;;19.81
28803;BMP280;15949;55.656;37.422;2023-08-06T00:10:35;99773.06;;;19.74
28803;BMP280;15949;55.656;37.422;2023-08-06T00:15:40;99779.94;;;19.65
28803;BMP280;15949;55.656;37.422;2023-08-06T00:20:46;99784.13;;;19.55
28803;BMP280;15949;55.656;37.422;2023-08-06T00:25:51;99775.50;;;19.44
28803;BMP280;15949;55.656;37.422;2023-08-06T00:30:57;99781.63;;;19.34
28803;BMP280;15949;55.656;37.422;2023-08-06T00:36:03;99790.72;;;19.22
28803;BMP280;15949;55.656;37.422;2023-08-06T00:41:08;99790.78;;;19.08
28803;BMP280;15949;55.656;37.422;2023-08-06T00:46:14;99779.84;;;18.99
28803;BMP280;15949;55.656;37.422;2023-08-06T00:51:20;99785.50;;;18.98
28803;BMP280;15949;55.656;37.422;2023-08-06T00:56:26;99787.03;;;18.95
28803;BMP280;15949;55.656;37.422;2023-08-06T01:01:32;99784.78;;;18.87
28803;BMP280;15949;55.656;37.422;2023-08-06T01:06:44;99780.63;;;18.82
28803;BMP280;15949;55.656;37.422;2023-08-06T01:12:04;99793.88;;;18.75
28803;BMP280;15949;55.656;37.422;2023-08-06T01:17:12;99795.00;;;18.74
28803;BMP280;15949;55.656;37.422;2023-08-06T01:22:18;99791.63;;;18.67
28803;BMP280;15949;55.656;37.422;2023-08-06T01:27:41;99793.50;;;18.59
28803;BMP280;15949;55.656;37.422;2023-08-06T01:32:50;99786.72;;;18.51
28803;BMP280;15949;55.656;37.422;2023-08-06T01:37:59;99798.81;;;18.45
28803;BMP280;15949;55.656;37.422;2023-08-06T01:43:05;99799.19;;;18.40
28803;BMP280;15949;55.656;37.422;2023-08-06T01:48:11;99803.69;;;18.29
28803;BMP280;15949;55.656;37.422;2023-08-06T01:53:16;99804.84;;;18.21
28803;BMP280;15949;55.656;37.422;2023-08-06T01:58:22;99802.19;;;18.14
28803;BMP280;15949;55.656;37.422;2023-08-06T02:03:28;99808.94;;;18.11
28803;BMP280;15949;55.656;37.422;2023-08-06T02:08:33;99805.19;;;18.09
28803;BMP280;15949;55.656;37.422;2023-08-06T02:13:39;99815.38;;;18.14
28803;BMP280;15949;55.656;37.422;2023-08-06T02:18:45;99816.09;;;18.14
28803;BMP280;15949;55.656;37.422;2023-08-06T02:23:51;99825.53;;;18.15
28803;BMP280;15949;55.656;37.422;2023-08-06T02:28:56;99828.94;;;18.16
28803;BMP280;15949;55.656;37.422;2023-08-06T02:34:02;99828.59;;;18.21
28803;BMP280;15949;55.656;37.422;2023-08-06T02:39:08;99824.81;;;18.22
28803;BMP280;15949;55.656;37.422;2023-08-06T02:44:14;99833.47;;;18.26
28803;BMP280;15949;55.656;37.422;2023-08-06T02:49:19;99829.34;;;18.28
28803;BMP280;15949;55.656;37.422;2023-08-06T02:54:25;99824.06;;;18.39
28803;BMP280;15949;55.656;37.422;2023-08-06T02:59:31;99827.84;;;18.45
28803;BMP280;15949;55.656;37.422;2023-08-06T03:04:37;99808.97;;;18.53
28803;BMP280;15949;55.656;37.422;2023-08-06T03:09:42;99810.09;;;18.60
28803;BMP280;15949;55.656;37.422;2023-08-06T03:14:48;99819.53;;;18.71
28803;BMP280;15949;55.656;37.422;2023-08-06T03:19:54;99818.38;;;18.79
28803;BMP280;15949;55.656;37.422;2023-08-06T03:24:59;99809.69;;;18.89
28803;BMP280;15949;55.656;37.422;2023-08-06T03:30:06;99819.47;;;18.99
28803;BMP280;15949;55.656;37.422;2023-08-06T03:35:12;99821.72;;;19.11
28803;BMP280;15949;55.656;37.422;2023-08-06T03:40:17;99816.41;;;19.25
28803;BMP280;15949;55.656;37.422;2023-08-06T03:45:23;99825.75;;;19.41
28803;BMP280;15949;55.656;37.422;2023-08-06T03:50:29;99822.28;;;19.58
28803;BMP280;15949;55.656;37.422;2023-08-06T03:55:35;99816.16;;;19.75
28803;BMP280;15949;55.656;37.422;2023-08-06T04:00:40;99819.09;;;19.91
28803;BMP280;15949;55.656;37.422;2023-08-06T04:05:46;99816.34;;;20.05
28803;BMP280;15949;55.656;37.422;2023-08-06T04:10:52;99814.69;;;20.25
28803;BMP280;15949;55.656;37.422;2023-08-06T04:16:04;99811.91;;;20.39
28803;BMP280;15949;55.656;37.422;2023-08-06T04:21:10;99808.06;;;20.47
28803;BMP280;15949;55.656;37.422;2023-08-06T04:26:16;99807.16;;;20.64
28803;BMP280;15949;55.656;37.422;2023-08-06T04:31:22;99796.38;;;20.78
28803;BMP280;15949;55.656;37.422;2023-08-06T04:36:28;99801.91;;;20.94
28803;BMP280;15949;55.656;37.422;2023-08-06T04:41:34;99808.94;;;21.08
28803;BMP280;15949;55.656;37.422;2023-08-06T04:46:39;99805.03;;;21.20
28803;BMP280;15949;55.656;37.422;2023-08-06T04:51:45;99809.78;;;21.35
28803;BMP280;15949;55.656;37.422;2023-08-06T04:56:51;99814.09;;;21.52
28803;BMP280;15949;55.656;37.422;2023-08-06T05:01:57;99810.09;;;21.64
28803;BMP280;15949;55.656;37.422;2023-08-06T05:07:03;99802.31;;;21.80
28803;BMP280;15949;55.656;37.422;2023-08-06T05:12:09;99798.25;;;21.95
28803;BMP280;15949;55.656;37.422;2023-08-06T05:17:15;99802.97;;;22.11
28803;BMP280;15949;55.656;37.422;2023-08-06T05:22:20;99796.81;;;22.37
28803;BMP280;15949;55.656;37.422;2023-08-06T05:27:26;99793.75;;;22.58
28803;BMP280;15949;55.656;37.422;2023-08-06T05:32:32;99790.50;;;22.70
28803;BMP280;15949;55.656;37.422;2023-08-06T05:37:37;99791.97;;;22.91
28803;BMP280;15949;55.656;37.422;2023-08-06T05:42:43;99784.31;;;23.12
28803;BMP280;15949;55.656;37.422;2023-08-06T05:47:49;99782.03;;;23.30
28803;BMP280;15949;55.656;37.422;2023-08-06T05:52:55;99786.81;;;23.55
28803;BMP280;15949;55.656;37.422;2023-08-06T05:58:00;99786.28;;;23.76
28803;BMP280;15949;55.656;37.422;2023-08-06T06:03:06;99781.53;;;24.00
28803;BMP280;15949;55.656;37.422;2023-08-06T06:08:12;99778.72;;;24.19
28803;BMP280;15949;55.656;37.422;2023-08-06T06:13:17;99781.59;;;24.41
28803;BMP280;15949;55.656;37.422;2023-08-06T06:18:23;99769.69;;;24.58
28803;BMP280;15949;55.656;37.422;2023-08-06T06:23:29;99770.34;;;24.74
28803;BMP280;15949;55.656;37.422;2023-08-06T06:28:35;99767.91;;;24.93
28803;BMP280;15949;55.656;37.422;2023-08-06T06:33:41;99764.59;;;25.14
28803;BMP280;15949;55.656;37.422;2023-08-06T06:38:46;99762.44;;;25.34
28803;BMP280;15949;55.656;37.422;2023-08-06T06:43:53;99768.06;;;25.61
28803;BMP280;15949;55.656;37.422;2023-08-06T06:48:59;99762.00;;;25.82
28803;BMP280;15949;55.656;37.422;2023-08-06T06:54:05;99761.72;;;26.02
28803;BMP280;15949;55.656;37.422;2023-08-06T06:59:10;99753.63;;;26.14
28803;BMP280;15949;55.656;37.422;2023-08-06T07:04:16;99755.00;;;26.40
28803;BMP280;15949;55.656;37.422;2023-08-06T07:09:22;99751.84;;;26.63
28803;BMP280;15949;55.656;37.422;2023-08-06T07:14:28;99759.38;;;26.86
28803;BMP280;15949;55.656;37.422;2023-08-06T07:19:34;99750.94;;;27.06
28803;BMP280;15949;55.656;37.422;2023-08-06T07:24:39;99751.09;;;27.12
28803;BMP280;15949;55.656;37.422;2023-08-06T07:29:45;99750.22;;;27.24
28803;BMP280;15949;55.656;37.422;2023-08-06T07:34:51;99742.50;;;27.44
28803;BMP280;15949;55.656;37.422;2023-08-06T07:40:02;99744.59;;;27.67
28803;BMP280;15949;55.656;37.422;2023-08-06T07:45:09;99735.31;;;27.86
28803;BMP280;15949;55.656;37.422;2023-08-06T07:50:15;99736.38;;;27.97
28803;BMP280;15949;55.656;37.422;2023-08-06T07:55:21;99748.41;;;28.11
28803;BMP280;15949;55.656;37.422;2023-08-06T08:00:27;99740.94;;;28.24
28803;BMP280;15949;55.656;37.422;2023-08-06T08:05:32;99734.19;;;28.38
28803;BMP280;15949;55.656;37.422;2023-08-06T08:10:38;99733.69;;;28.48
28803;BMP280;15949;55.656;37.422;2023-08-06T08:15:44;99728.31;;;28.48
28803;BMP280;15949;55.656;37.422;2023-08-06T08:20:50;99724.41;;;28.49
28803;BMP280;15949;55.656;37.422;2023-08-06T08:25:56;99725.56;;;28.57
28803;BMP280;15949;55.656;37.422;2023-08-06T08:31:01;99718.97;;;28.67
28803;BMP280;15949;55.656;37.422;2023-08-06T08:36:07;99710.66;;;28.89
28803;BMP280;15949;55.656;37.422;2023-08-06T08:41:15;99707.56;;;29.05
28803;BMP280;15949;55.656;37.422;2023-08-06T08:46:21;99704.69;;;29.08
28803;BMP280;15949;55.656;37.422;2023-08-06T08:51:27;99701.31;;;29.22
28803;BMP280;15949;55.656;37.422;2023-08-06T08:56:35;99702.84;;;29.53
28803;BMP280;15949;55.656;37.422;2023-08-06T09:01:42;99696.91;;;29.63
28803;BMP280;15949;55.656;37.422;2023-08-06T09:06:50;99708.59;;;29.89
28803;BMP280;15949;55.656;37.422;2023-08-06T09:12:00;99704.84;;;30.01
28803;BMP280;15949;55.656;37.422;2023-08-06T09:17:08;99695.81;;;30.19
28803;BMP280;15949;55.656;37.422;2023-08-06T09:22:16;99690.34;;;30.13
28803;BMP280;15949;55.656;37.422;2023-08-06T09:27:22;99693.06;;;30.48
28803;BMP280;15949;55.656;37.422;2023-08-06T09:32:44;99689.91;;;30.69
28803;BMP280;15949;55.656;37.422;2023-08-06T09:37:50;99689.84;;;30.84
28803;BMP280;15949;55.656;37.422;2023-08-06T09:42:56;99678.34;;;31.09
28803;BMP280;15949;55.656;37.422;2023-08-06T09:48:04;99678.47;;;31.26
28803;BMP280;15949;55.656;37.422;2023-08-06T09:53:11;99670.28;;;31.40
28803;BMP280;15949;55.656;37.422;2023-08-06T09:58:17;99664.06;;;31.54
28803;BMP280;15949;55.656;37.422;2023-08-06T10:03:23;99654.34;;;31.68
28803;BMP280;15949;55.656;37.422;2023-08-06T10:08:29;99650.31;;;31.89
28803;BMP280;15949;55.656;37.422;2023-08-06T10:13:36;99633.16;;;31.55
28803;BMP280;15949;55.656;37.422;2023-08-06T10:18:42;99644.34;;;30.66
28803;BMP280;15949;55.656;37.422;2023-08-06T10:23:54;99634.63;;;31.25
28803;BMP280;15949;55.656;37.422;2023-08-06T10:29:00;99624.63;;;31.62
28803;BMP280;15949;55.656;37.422;2023-08-06T10:34:05;99625.34;;;30.75
28803;BMP280;15949;55.656;37.422;2023-08-06T10:39:14;99633.88;;;31.19
28803;BMP280;15949;55.656;37.422;2023-08-06T10:44:21;99616.59;;;32.15
28803;BMP280;15949;55.656;37.422;2023-08-06T10:49:27;99614.34;;;32.03
28803;BMP280;15949;55.656;37.422;2023-08-06T10:54:33;99622.72;;;31.68
28803;BMP280;15949;55.656;37.422;2023-08-06T10:59:39;99623.50;;;31.43
28803;BMP280;15949;55.656;37.422;2023-08-06T11:04:45;99615.19;;;31.78
28803;BMP280;15949;55.656;37.422;2023-08-06T11:09:50;99626.06;;;31.58
28803;BMP280;15949;55.656;37.422;2023-08-06T11:14:59;99628.00;;;31.88
28803;BMP280;15949;55.656;37.422;2023-08-06T11:20:05;99619.31;;;32.21
28803;BMP280;15949;55.656;37.422;2023-08-06T11:25:11;99612.31;;;31.92
28803;BMP280;15949;55.656;37.422;2023-08-06T11:30:16;99614.63;;;31.68
28803;BMP280;15949;55.656;37.422;2023-08-06T11:35:22;99606.19;;;31.97
28803;BMP280;15949;55.656;37.422;2023-08-06T11:40:28;99599.50;;;32.41
28803;BMP280;15949;55.656;37.422;2023-08-06T11:45:35;99599.06;;;32.53
28803;BMP280;15949;55.656;37.422;2023-08-06T11:50:41;99597.91;;;32.93
28803;BMP280;15949;55.656;37.422;2023-08-06T11:55:46;99596.56;;;32.38
28803;BMP280;15949;55.656;37.422;2023-08-06T12:00:52;99592.06;;;31.29
28803;BMP280;15949;55.656;37.422;2023-08-06T12:05:58;99581.91;;;31.92
28803;BMP280;15949;55.656;37.422;2023-08-06T12:11:03;99577.16;;;32.34
28803;BMP280;15949;55.656;37.422;2023-08-06T12:16:09;99576.50;;;31.86
28803;BMP280;15949;55.656;37.422;2023-08-06T12:21:15;99577.66;;;32.33
28803;BMP280;15949;55.656;37.422;2023-08-06T12:26:20;99568.59;;;32.42
28803;BMP280;15949;55.656;37.422;2023-08-06T12:31:26;99568.59;;;32.30
28803;BMP280;15949;55.656;37.422;2023-08-06T12:36:31;99563.63;;;31.65
28803;BMP280;15949;55.656;37.422;2023-08-06T12:41:37;99573.13;;;30.93
28803;BMP280;15949;55.656;37.422;2023-08-06T12:46:42;99562.38;;;30.47
28803;BMP280;15949;55.656;37.422;2023-08-06T12:51:49;99564.19;;;30.81
28803;BMP280;15949;55.656;37.422;2023-08-06T12:56:54;99565.75;;;30.42
28803;BMP280;15949;55.656;37.422;2023-08-06T13:02:00;99559.81;;;30.58
28803;BMP280;15949;55.656;37.422;2023-08-06T13:07:06;99562.50;;;30.58
28803;BMP280;15949;55.656;37.422;2023-08-06T13:12:11;99555.19;;;31.15
28803;BMP280;15949;55.656;37.422;2023-08-06T13:17:17;99550.56;;;30.90
28803;BMP280;15949;55.656;37.422;2023-08-06T13:22:22;99539.53;;;31.50
28803;BMP280;15949;55.656;37.422;2023-08-06T13:27:28;99544.22;;;31.19
28803;BMP280;15949;55.656;37.422;2023-08-06T13:32:34;99536.13;;;31.61
28803;BMP280;15949;55.656;37.422;2023-08-06T13:37:42;99539.19;;;31.74
28803;BMP280;15949;55.656;37.422;2023-08-06T13:42:47;99536.31;;;31.94
28803;BMP280;15949;55.656;37.422;2023-08-06T13:47:54;99534.66;;;32.13
28803;BMP280;15949;55.656;37.422;2023-08-06T13:53:00;99520.00;;;32.30
28803;BMP280;15949;55.656;37.422;2023-08-06T13:58:06;99523.19;;;32.34
28803;BMP280;15949;55.656;37.422;2023-08-06T14:03:11;99519.03;;;32.45
28803;BMP280;15949;55.656;37.422;2023-08-06T14:08:17;99515.09;;;32.34
28803;BMP280;15949;55.656;37.422;2023-08-06T14:13:25;99523.72;;;31.74
28803;BMP280;15949;55.656;37.422;2023-08-06T14:18:31;99515.00;;;31.48
28803;BMP280;15949;55.656;37.422;2023-08-06T14:23:36;99507.38;;;31.41
28803;BMP280;15949;55.656;37.422;2023-08-06T14:28:42;99514.38;;;31.28
28803;BMP280;15949;55.656;37.422;2023-08-06T14:33:48;99520.38;;;31.43
28803;BMP280;15949;55.656;37.422;2023-08-06T14:38:53;99503.59;;;31.64
28803;BMP280;15949;55.656;37.422;2023-08-06T14:43:59;99499.44;;;31.27
28803;BMP280;15949;55.656;37.422;2023-08-06T14:49:05;99509.41;;;30.84
28803;BMP280;15949;55.656;37.422;2023-08-06T14:54:10;99505.88;;;30.27
28803;BMP280;15949;55.656;37.422;2023-08-06T14:59:16;99508.09;;;30.03
28803;BMP280;15949;55.656;37.422;2023-08-06T15:04:21;99508.13;;;29.68
28803;BMP280;15949;55.656;37.422;2023-08-06T15:09:28;99505.31;;;29.77
28803;BMP280;15949;55.656;37.422;2023-08-06T15:14:34;99510.69;;;29.28
28803;BMP280;15949;55.656;37.422;2023-08-06T15:19:39;99507.84;;;29.02
28803;BMP280;15949;55.656;37.422;2023-08-06T15:24:45;99508.09;;;28.75
28803;BMP280;15949;55.656;37.422;2023-08-06T15:29:51;99506.50;;;28.54
28803;BMP280;15949;55.656;37.422;2023-08-06T15:34:57;99506.06;;;28.32
28803;BMP280;15949;55.656;37.422;2023-08-06T15:40:03;99509.44;;;28.18
28803;BMP280;15949;55.656;37.422;2023-08-06T15:45:08;99501.84;;;27.93
28803;BMP280;15949;55.656;37.422;2023-08-06T15:50:14;99506.50;;;27.83
28803;BMP280;15949;55.656;37.422;2023-08-06T15:55:20;99499.25;;;27.75
28803;BMP280;15949;55.656;37.422;2023-08-06T16:00:25;99500.03;;;27.66
28803;BMP280;15949;55.656;37.422;2023-08-06T16:05:31;99505.59;;;27.63
28803;BMP280;15949;55.656;37.422;2023-08-06T16:10:37;99499.81;;;27.46
28803;BMP280;15949;55.656;37.422;2023-08-06T16:15:42;99508.78;;;27.34
28803;BMP280;15949;55.656;37.422;2023-08-06T16:20:48;99498.25;;;27.13
28803;BMP280;15949;55.656;37.422;2023-08-06T16:25:53;99504.22;;;26.98
28803;BMP280;15949;55.656;37.422;2023-08-06T16:30:59;99501.25;;;26.87
28803;BMP280;15949;55.656;37.422;2023-08-06T16:36:05;99507.09;;;26.68
28803;BMP280;15949;55.656;37.422;2023-08-06T16:41:10;99504.53;;;26.55
28803;BMP280;15949;55.656;37.422;2023-08-06T16:46:16;99509.28;;;26.42
28803;BMP280;15949;55.656;37.422;2023-08-06T16:51:21;99515.81;;;26.32
28803;BMP280;15949;55.656;37.422;2023-08-06T16:56:27;99516.06;;;26.16
28803;BMP280;15949;55.656;37.422;2023-08-06T17:01:33;99512.88;;;26.00
28803;BMP280;15949;55.656;37.422;2023-08-06T17:06:41;99513.19;;;25.93
28803;BMP280;15949;55.656;37.422;2023-08-06T17:11:46;99515.91;;;25.80
28803;BMP280;15949;55.656;37.422;2023-08-06T17:16:53;99511.00;;;25.69
28803;BMP280;15949;55.656;37.422;2023-08-06T17:21:59;99516.38;;;25.48
28803;BMP280;15949;55.656;37.422;2023-08-06T17:27:06;99509.66;;;25.22
28803;BMP280;15949;55.656;37.422;2023-08-06T17:32:11;99522.44;;;25.05
28803;BMP280;15949;55.656;37.422;2023-08-06T17:37:18;99518.09;;;24.99
28803;BMP280;15949;55.656;37.422;2023-08-06T17:42:23;99521.66;;;24.83
28803;BMP280;15949;55.656;37.422;2023-08-06T17:47:29;99511.34;;;24.72
28803;BMP280;15949;55.656;37.422;2023-08-06T17:52:35;99512.00;;;24.64
28803;BMP280;15949;55.656;37.422;2023-08-06T17:57:41;99516.50;;;24.54
28803;BMP280;15949;55.656;37.422;2023-08-06T18:02:47;99516.44;;;24.45
28803;BMP280;15949;55.656;37.422;2023-08-06T18:07:52;99525.25;;;24.42
28803;BMP280;15949;55.656;37.422;2023-08-06T18:12:58;99520.72;;;24.30
28803;BMP280;15949;55.656;37.422;2023-08-06T18:18:03;99529.75;;;24.20
28803;BMP280;15949;55.656;37.422;2023-08-06T18:23:09;99519.66;;;24.15
28803;BMP280;15949;55.656;37.422;2023-08-06T18:28:15;99525.38;;;24.01
28803;BMP280;15949;55.656;37.422;2023-08-06T18:33:21;99516.97;;;23.90
28803;BMP280;15949;55.656;37.422;2023-08-06T18:38:27;99518.78;;;23.80
28803;BMP280;15949;55.656;37.422;2023-08-06T18:43:32;99512.25;;;23.69
28803;BMP280;15949;55.656;37.422;2023-08-06T18:48:38;99511.03;;;23.57
28803;BMP280;15949;55.656;37.422;2023-08-06T18:53:44;99514.75;;;23.47
28803;BMP280;15949;55.656;37.422;2023-08-06T18:58:49;99509.50;;;23.44
28803;BMP280;15949;55.656;37.422;2023-08-06T19:03:55;99509.22;;;23.42
28803;BMP280;15949;55.656;37.422;2023-08-06T19:09:01;99505.75;;;23.29
28803;BMP280;15949;55.656;37.422;2023-08-06T19:14:07;99502.41;;;23.25
28803;BMP280;15949;55.656;37.422;2023-08-06T19:19:13;99494.72;;;23.14
28803;BMP280;15949;55.656;37.422;2023-08-06T19:24:19;99500.91;;;23.11
28803;BMP280;15949;55.656;37.422;2023-08-06T19:29:25;99492.22;;;23.07
28803;BMP280;15949;55.656;37.422;2023-08-06T19:34:30;99489.28;;;23.05
28803;BMP280;15949;55.656;37.422;2023-08-06T19:39:36;99495.50;;;22.99
28803;BMP280;15949;55.656;37.422;2023-08-06T19:44:42;99495.34;;;22.89
28803;BMP280;15949;55.656;37.422;2023-08-06T19:49:47;99493.03;;;22.92
28803;BMP280;15949;55.656;37.422;2023-08-06T19:54:53;99490.22;;;22.82
28803;BMP280;15949;55.656;37.422;2023-08-06T20:00:00;99486.91;;;22.78
28803;BMP280;15949;55.656;37.422;2023-08-06T20:05:06;99491.63;;;22.87
28803;BMP280;15949;55.656;37.422;2023-08-06T20:10:12;99494.19;;;22.91
28803;BMP280;15949;55.656;37.422;2023-08-06T20:15:18;99492.22;;;22.78
28803;BMP280;15949;55.656;37.422;2023-08-06T20:20:24;99489.72;;;22.71
28803;BMP280;15949;55.656;37.422;2023-08-06T20:25:31;99494.22;;;22.58
28803;BMP280;15949;55.656;37.422;2023-08-06T20:30:40;99487.72;;;22.59
28803;BMP280;15949;55.656;37.422;2023-08-06T20:35:46;99488.00;;;22.65
28803;BMP280;15949;55.656;37.422;2023-08-06T20:40:52;99494.31;;;22.55
28803;BMP280;15949;55.656;37.422;2023-08-06T20:45:57;99492.88;;;22.50
28803;BMP280;15949;55.656;37.422;2023-08-06T20:51:05;99487.25;;;22.48
28803;BMP280;15949;55.656;37.422;2023-08-06T20:56:11;99494.31;;;22.39
28803;BMP280;15949;55.656;37.422;2023-08-06T21:01:18;99491.78;;;22.32
28803;BMP280;15949;55.656;37.422;2023-08-06T21:06:23;99496.53;;;22.24
28803;BMP280;15949;55.656;37.422;2023-08-06T21:11:29;99497.06;;;22.16
28803;BMP280;15949;55.656;37.422;2023-08-06T21:16:34;99500.63;;;22.09
28803;BMP280;15949;55.656;37.422;2023-08-06T21:21:40;99497.16;;;22.12
28803;BMP280;15949;55.656;37.422;2023-08-06T21:26:46;99496.50;;;22.08
28803;BMP280;15949;55.656;37.422;2023-08-06T21:31:51;99498.94;;;21.99
28803;BMP280;15949;55.656;37.422;2023-08-06T21:36:57;99496.03;;;21.93
28803;BMP280;15949;55.656;37.422;2023-08-06T21:42:03;99505.31;;;21.85
28803;BMP280;15949;55.656;37.422;2023-08-06T21:47:08;99498.16;;;21.82
28803;BMP280;15949;55.656;37.422;2023-08-06T21:52:14;99495.56;;;21.79
28803;BMP280;15949;55.656;37.422;2023-08-06T21:57:19;99508.91;;;21.75
28803;BMP280;15949;55.656;37.422;2023-08-06T22:02:25;99507.00;;;21.76
28803;BMP280;15949;55.656;37.422;2023-08-06T22:07:30;99498.91;;;21.83
28803;BMP280;15949;55.656;37.422;2023-08-06T22:12:36;99504.00;;;21.74
28803;BMP280;15949;55.656;37.422;2023-08-06T22:17:41;99501.91;;;21.65
28803;BMP280;15949;55.656;37.422;2023-08-06T22:22:47;99498.22;;;21.59
28803;BMP280;15949;55.656;37.422;2023-08-06T22:27:52;99487.00;;;21.52
28803;BMP280;15949;55.656;37.422;2023-08-06T22:32:58;99493.94;;;21.46
28803;BMP280;15949;55.656;37.422;2023-08-06T22:38:04;99489.91;;;21.38
28803;BMP280;15949;55.656;37.422;2023-08-06T22:43:10;99491.03;;;21.37
28803;BMP280;15949;55.656;37.422;2023-08-06T22:48:16;99491.53;;;21.32
28803;BMP280;15949;55.656;37.422;2023-08-06T22:53:21;99492.69;;;21.31
28803;BMP280;15949;55.656;37.422;2023-08-06T22:58:27;99486.06;;;21.19
28803;BMP280;15949;55.656;37.422;2023-08-06T23:03:32;99481.66;;;21.13
28803;BMP280;15949;55.656;37.422;2023-08-06T23:08:38;99478.94;;;21.16
28803;BMP280;15949;55.656;37.422;2023-08-06T23:13:43;99482.28;;;21.20
28803;BMP280;15949;55.656;37.422;2023-08-06T23:18:49;99487.47;;;21.27
28803;BMP280;15949;55.656;37.422;2023-08-06T23:23:55;99480.66;;;21.26
28803;BMP280;15949;55.656;37.422;2023-08-06T23:29:00;99470.56;;;21.18
28803;BMP280;15949;55.656;37.422;2023-08-06T23:34:06;99471.59;;;21.24
28803;BMP280;15949;55.656;37.422;2023-08-06T23:39:12;99477.59;;;21.28
28803;BMP280;15949;55.656;37.422;2023-08-06T23:44:18;99465.06;;;21.28
28803;BMP280;15949;55.656;37.422;2023-08-06T23:49:23;99465.25;;;21.18
28803;BMP280;15949;55.656;37.422;2023-08-06T23:54:29;99459.69;;;21.12
28803;BMP280;15949;55.656;37.422;2023-08-06T23:59:35;99457.41;;;21.11
